Time;durP1;ratioP1;P1;durP2;ratioP2;P2;SDS_P1;SDS_P2;PMS_P1;PMS_P2;Temp;Humidity;BMP_temperature;BMP_pressure;BME280_temperature;BME280_humidity;BME280_pressure;Samples;Min_cycle;Max_cycle;Signal;HPM_P1;HPM_P2
2023/07/22 04:30:27;;;;;;;11.50;5.07;;;15.10;75.30;;;;;;5852564;23;20494;-74
2023/07/22 04:32:53;;;;;;;10.40;4.60;;;15.10;75.40;;;;;;4982810;28;20114;-74
2023/07/22 04:35:19;;;;;;;9.52;4.85;;;15.00;75.90;;;;;;4994514;28;20056;-74
2023/07/22 04:37:44;;;;;;;11.13;4.38;;;15.00;76.30;;;;;;4998068;28;20165;-74
2023/07/22 04:40:17;;;;;;;10.90;4.75;;;15.00;76.50;;;;;;4998135;28;20018;-74
2023/07/22 04:42:44;;;;;;;10.63;4.70;;;15.00;76.20;;;;;;4978341;28;20081;-73
2023/07/22 04:45:11;;;;;;;8.98;4.95;;;15.00;76.60;;;;;;4978666;28;20391;-73
2023/07/22 04:47:38;;;;;;;11.43;5.00;;;15.00;76.40;;;;;;4978321;28;20027;-74
2023/07/22 04:50:05;;;;;;;9.68;5.00;;;15.10;76.20;;;;;;4978438;28;20054;-74
2023/07/22 04:52:31;;;;;;;10.02;4.47;;;15.10;76.30;;;;;;4983238;28;20548;-73
2023/07/22 04:54:56;;;;;;;10.07;4.97;;;15.20;75.70;;;;;;4980232;28;20022;-74
2023/07/22 04:57:22;;;;;;;9.65;4.60;;;15.20;75.60;;;;;;4998087;28;20034;-73
2023/07/22 04:59:48;;;;;;;11.82;5.25;;;15.20;76.20;;;;;;4980032;28;20037;-74
2023/07/22 05:02:13;;;;;;;10.57;4.07;;;15.20;76.00;;;;;;4981680;28;20031;-74
2023/07/22 05:04:39;;;;;;;10.35;4.93;;;15.20;76.10;;;;;;4988905;28;20054;-74
2023/07/22 05:07:04;;;;;;;8.95;3.92;;;15.20;76.10;;;;;;4987405;28;20034;-74
2023/07/22 05:09:30;;;;;;;9.60;4.75;;;15.20;76.30;;;;;;4977966;28;20553;-74
2023/07/22 05:11:56;;;;;;;8.50;4.30;;;15.20;76.40;;;;;;4981806;28;20394;-74
2023/07/22 05:14:23;;;;;;;9.63;4.80;;;15.20;76.40;;;;;;4978184;28;20034;-74
2023/07/22 05:16:48;;;;;;;9.52;4.35;;;15.20;76.20;;;;;;4978139;28;20038;-74
2023/07/22 05:19:14;;;;;;;10.48;4.13;;;15.30;76.50;;;;;;4962754;28;20456;-74
2023/07/22 05:21:41;;;;;;;10.60;4.15;;;15.30;76.20;;;;;;4980213;28;20026;-74
2023/07/22 05:24:06;;;;;;;10.48;4.22;;;15.30;76.30;;;;;;4997514;28;20038;-74
2023/07/22 05:26:32;;;;;;;8.82;3.95;;;15.30;76.30;;;;;;4994365;28;20026;-74
2023/07/22 05:28:58;;;;;;;10.18;3.90;;;15.40;75.90;;;;;;4984977;28;20445;-74
2023/07/22 05:31:23;;;;;;;11.30;4.63;;;15.40;76.30;;;;;;4977971;28;20453;-74
2023/07/22 05:33:49;;;;;;;10.45;4.15;;;15.40;76.50;;;;;;4960630;28;20030;-74
2023/07/22 05:36:15;;;;;;;8.73;4.25;;;15.50;76.10;;;;;;4981063;28;20038;-74
2023/07/22 05:38:40;;;;;;;9.60;4.45;;;15.70;76.10;;;;;;4993995;28;20481;-74
2023/07/22 05:41:06;;;;;;;10.27;4.88;;;15.70;76.10;;;;;;4997428;28;20030;-74
2023/07/22 05:43:31;;;;;;;9.75;4.15;;;15.80;75.90;;;;;;4988708;28;20055;-74
2023/07/22 05:45:57;;;;;;;10.57;4.22;;;15.80;75.90;;;;;;4978159;28;20030;-74
2023/07/22 05:48:23;;;;;;;9.60;4.13;;;15.90;76.30;;;;;;4988602;28;20022;-74
2023/07/22 05:50:49;;;;;;;7.93;4.30;;;15.90;76.20;;;;;;4997260;28;20038;-73
2023/07/22 05:53:14;;;;;;;8.55;4.13;;;16.10;75.80;;;;;;4962577;28;20189;-74
2023/07/22 05:55:40;;;;;;;9.95;4.50;;;16.20;75.80;;;;;;4977805;28;20031;-74
2023/07/22 05:58:05;;;;;;;8.10;4.15;;;16.30;75.90;;;;;;4977668;28;20019;-74
2023/07/22 06:00:33;;;;;;;10.77;4.30;;;16.40;75.40;;;;;;4977687;28;20030;-73
2023/07/22 06:02:59;;;;;;;10.18;3.58;;;16.40;75.40;;;;;;4979424;28;20523;-73
2023/07/22 06:05:24;;;;;;;10.35;4.07;;;16.30;75.20;;;;;;4997092;28;20105;-73
2023/07/22 06:07:50;;;;;;;10.48;3.92;;;16.50;75.10;;;;;;4975111;28;20035;-74
2023/07/22 06:10:16;;;;;;;9.98;3.95;;;16.50;75.10;;;;;;4979863;28;20105;-74
2023/07/22 06:12:41;;;;;;;8.25;3.92;;;16.50;75.20;;;;;;4963609;28;20500;-74
2023/07/22 06:15:08;;;;;;;8.90;3.97;;;16.40;75.20;;;;;;4979882;28;20022;-77
2023/07/22 06:17:34;;;;;;;7.88;3.47;;;16.50;75.30;;;;;;4997349;28;20066;-80
2023/07/22 06:19:59;;;;;;;7.55;3.90;;;16.50;75.50;;;;;;4997099;28;20481;-78
2023/07/22 06:22:25;;;;;;;10.20;4.00;;;16.50;75.10;;;;;;4971364;28;20513;-84
2023/07/22 06:24:51;;;;;;;9.27;3.85;;;16.60;75.10;;;;;;4976911;28;20027;-78
2023/07/22 06:27:16;;;;;;;9.32;3.72;;;16.60;74.90;;;;;;4970086;28;20030;-77
2023/07/22 06:29:42;;;;;;;9.35;4.07;;;16.60;75.10;;;;;;4977552;28;20034;-77
2023/07/22 06:32:08;;;;;;;8.85;3.85;;;16.60;75.00;;;;;;4967645;28;20078;-77
2023/07/22 06:34:33;;;;;;;8.85;3.53;;;16.70;75.10;;;;;;4996956;28;20029;-77
2023/07/22 06:36:59;;;;;;;7.50;3.90;;;16.70;74.80;;;;;;4979027;28;20612;-77
2023/07/22 06:39:25;;;;;;;6.72;4.05;;;16.80;75.00;;;;;;4980658;28;20477;-77
2023/07/22 06:41:50;;;;;;;6.78;3.30;;;16.80;74.80;;;;;;4980794;28;20023;-76
2023/07/22 06:44:16;;;;;;;8.60;4.10;;;16.80;74.70;;;;;;4980578;28;20086;-76
2023/07/22 06:46:42;;;;;;;6.70;3.40;;;16.80;74.90;;;;;;4981023;28;20027;-77
2023/07/22 06:49:07;;;;;;;7.60;3.30;;;16.90;74.60;;;;;;4980670;28;20034;-77
2023/07/22 06:51:33;;;;;;;8.13;3.10;;;16.90;74.90;;;;;;4980929;28;20035;-78
2023/07/22 06:53:58;;;;;;;10.23;3.72;;;16.90;74.90;;;;;;4985027;28;20054;-78
2023/07/22 06:56:26;;;;;;;6.68;3.15;;;17.00;74.50;;;;;;4987876;28;20464;-78
2023/07/22 06:58:51;;;;;;;9.95;3.42;;;17.10;74.70;;;;;;4999405;28;20470;-79
2023/07/22 07:01:17;;;;;;;11.43;3.40;;;17.20;74.70;;;;;;4995281;28;20023;-78
2023/07/22 07:03:42;;;;;;;5.88;2.92;;;17.20;74.60;;;;;;4962512;28;20451;-79
2023/07/22 07:06:08;;;;;;;8.10;3.40;;;17.10;74.20;;;;;;4980683;28;20493;-78
2023/07/22 07:08:34;;;;;;;8.27;2.95;;;17.20;74.40;;;;;;4979737;28;20034;-79
2023/07/22 07:11:02;;;;;;;8.40;3.60;;;17.30;73.80;;;;;;4985870;28;20031;-79
2023/07/22 07:13:28;;;;;;;6.45;3.13;;;17.30;73.80;;;;;;4995617;28;20026;-79
2023/07/22 07:15:54;;;;;;;9.43;3.47;;;17.30;73.60;;;;;;4962709;28;20567;-79
2023/07/22 07:18:20;;;;;;;7.00;3.00;;;17.40;73.40;;;;;;4980172;28;20134;-78
2023/07/22 07:20:46;;;;;;;7.88;2.97;;;17.50;73.20;;;;;;4963058;28;20490;-78
2023/07/22 07:23:13;;;;;;;10.25;3.10;;;17.60;72.90;;;;;;4979851;28;20093;-80
2023/07/22 07:25:38;;;;;;;8.25;3.33;;;17.70;72.20;;;;;;4979721;28;20077;-77
2023/07/22 07:28:04;;;;;;;7.82;3.17;;;17.80;72.40;;;;;;4979983;28;20034;-77
2023/07/22 07:30:31;;;;;;;6.00;2.72;;;17.90;71.70;;;;;;4988479;28;20046;-77
2023/07/22 07:32:56;;;;;;;8.35;2.90;;;17.90;72.20;;;;;;4981382;28;20023;-78
2023/07/22 07:35:22;;;;;;;5.35;2.47;;;18.00;71.60;;;;;;4984827;28;20034;-77
2023/07/22 07:37:48;;;;;;;6.05;2.80;;;18.10;71.20;;;;;;4979340;28;20512;-77
2023/07/22 07:40:13;;;;;;;5.80;2.60;;;18.20;70.80;;;;;;4980047;28;20034;-77
2023/07/22 07:42:39;;;;;;;5.15;2.70;;;18.20;70.20;;;;;;4979647;28;20034;-77
2023/07/22 07:45:05;;;;;;;7.10;2.78;;;18.30;70.20;;;;;;4967142;28;20042;-77
2023/07/22 07:47:31;;;;;;;5.15;2.42;;;18.40;69.90;;;;;;4983096;28;20513;-77
2023/07/22 07:49:56;;;;;;;7.10;2.88;;;18.50;68.90;;;;;;4978437;28;20090;-78
2023/07/22 07:52:22;;;;;;;5.57;2.60;;;18.80;69.20;;;;;;4983111;28;20477;-78
2023/07/22 07:54:48;;;;;;;10.65;3.38;;;19.70;66.30;;;;;;4972203;28;20056;-78
2023/07/22 07:57:13;;;;;;;5.90;2.67;;;20.00;64.70;;;;;;4986576;28;20022;-78
2023/07/22 07:59:39;;;;;;;5.07;2.35;;;20.10;64.40;;;;;;4988294;28;20366;-78
2023/07/22 08:02:09;;;;;;;5.65;2.40;;;19.80;64.70;;;;;;4987124;28;20026;-79
2023/07/22 08:04:34;;;;;;;4.40;2.30;;;19.90;64.40;;;;;;4984621;28;20022;-79
2023/07/22 08:07:00;;;;;;;6.25;2.38;;;19.90;63.50;;;;;;4988052;28;20026;-79
2023/07/22 08:09:26;;;;;;;6.30;2.80;;;20.00;63.40;;;;;;4986681;28;20049;-79
2023/07/22 08:11:51;;;;;;;6.93;2.33;;;20.20;63.20;;;;;;4992333;28;20018;-82
2023/07/22 08:14:18;;;;;;;5.55;2.20;;;20.40;62.80;;;;;;4988420;28;20034;-79
2023/07/22 08:16:44;;;;;;;6.35;2.65;;;20.40;62.10;;;;;;4987458;28;20367;-79
2023/07/22 08:19:09;;;;;;;6.97;2.60;;;20.70;62.10;;;;;;4986094;28;20084;-78
2023/07/22 08:21:35;;;;;;;5.40;2.50;;;20.70;61.70;;;;;;4987749;28;20436;-78
2023/07/22 08:24:01;;;;;;;11.90;3.05;;;20.70;60.60;;;;;;4989159;28;20026;-79
2023/07/22 08:26:27;;;;;;;6.13;2.90;;;20.60;61.20;;;;;;4987413;28;20022;-78
2023/07/22 08:28:53;;;;;;;5.78;3.03;;;20.80;60.80;;;;;;4987661;28;20080;-79
2023/07/22 08:31:18;;;;;;;6.20;2.50;;;21.30;60.70;;;;;;4987990;28;20475;-79
2023/07/22 08:33:44;;;;;;;6.43;2.58;;;21.90;58.70;;;;;;4988731;28;20085;-79
2023/07/22 08:36:10;;;;;;;5.30;2.67;;;22.00;58.20;;;;;;4987748;28;20027;-79
2023/07/22 08:38:35;;;;;;;5.88;2.90;;;21.70;58.20;;;;;;4969557;28;20018;-79
2023/07/22 08:41:01;;;;;;;5.18;2.92;;;22.50;56.40;;;;;;4971591;28;20088;-79
2023/07/22 08:43:29;;;;;;;5.20;2.70;;;23.00;53.40;;;;;;4969663;28;20022;-78
2023/07/22 08:45:55;;;;;;;5.05;2.90;;;22.90;54.30;;;;;;4987713;28;20405;-78
2023/07/22 08:48:25;;;;;;;7.90;2.80;;;22.80;54.50;;;;;;4986610;28;20516;-79
2023/07/22 08:50:55;;;;;;;7.05;3.35;;;23.00;52.40;;;;;;4970611;28;20026;-78
2023/07/22 08:53:23;;;;;;;5.70;2.80;;;24.30;48.80;;;;;;4988725;28;20030;-77
2023/07/22 08:55:49;;;;;;;5.65;3.92;;;25.30;47.70;;;;;;4987551;28;20121;-79
2023/07/22 08:58:16;;;;;;;7.00;3.00;;;26.20;45.70;;;;;;4977804;28;20035;-78
2023/07/22 09:00:43;;;;;;;5.93;2.72;;;26.90;42.60;;;;;;4977763;28;20038;-79
2023/07/22 09:03:10;;;;;;;4.88;2.80;;;26.90;40.30;;;;;;4978456;28;20023;-78
2023/07/22 09:05:37;;;;;;;5.65;2.97;;;26.80;41.80;;;;;;4968020;28;20035;-77
2023/07/22 09:08:06;;;;;;;6.63;3.03;;;26.80;42.00;;;;;;4960361;28;20489;-77
2023/07/22 09:10:32;;;;;;;4.70;3.20;;;26.00;42.90;;;;;;4982141;28;20018;-79
2023/07/22 09:12:59;;;;;;;5.47;3.30;;;25.80;43.90;;;;;;4962360;28;20382;-78
2023/07/22 09:15:26;;;;;;;6.32;2.85;;;25.70;44.10;;;;;;4988241;28;20100;-77
2023/07/22 09:17:51;;;;;;;6.13;3.03;;;24.80;44.30;;;;;;4977568;28;20031;-76
2023/07/22 09:20:17;;;;;;;4.55;2.75;;;24.50;45.90;;;;;;4978246;28;20030;-78
2023/07/22 09:22:47;;;;;;;4.88;2.78;;;24.10;46.60;;;;;;4978097;28;20466;-78
2023/07/22 09:25:21;;;;;;;6.40;3.33;;;23.90;46.50;;;;;;4977358;28;20034;-81
2023/07/22 09:27:48;;;;;;;6.03;2.90;;;23.90;47.80;;;;;;4968413;28;20388;-82
2023/07/22 09:30:22;;;;;;;5.93;3.20;;;24.30;46.40;;;;;;4968169;28;20452;-81
2023/07/22 09:32:47;;;;;;;7.15;4.00;;;25.00;46.20;;;;;;4984795;28;20028;-81
2023/07/22 09:35:13;;;;;;;5.32;3.15;;;25.90;43.30;;;;;;4970228;28;20118;-80
2023/07/22 09:37:39;;;;;;;5.18;2.80;;;27.00;42.50;;;;;;4984570;28;20058;-79
2023/07/22 09:40:14;;;;;;;4.50;2.67;;;27.50;41.00;;;;;;4977454;28;20046;-78
2023/07/22 09:42:42;;;;;;;6.45;4.18;;;28.00;40.50;;;;;;4994006;28;20018;-78
2023/07/22 09:45:09;;;;;;;6.25;2.95;;;28.20;39.90;;;;;;4991277;28;20109;-83
2023/07/22 09:47:46;;;;;;;6.80;6.10;;;28.20;39.20;;;;;;4980944;28;20041;-79
2023/07/22 09:50:16;;;;;;;5.05;3.30;;;28.50;38.30;;;;;;4992425;28;20110;-78
2023/07/22 09:52:54;;;;;;;5.72;4.95;;;29.20;37.30;;;;;;4995779;28;20503;-81
2023/07/22 09:55:23;;;;;;;7.60;2.90;;;28.50;37.50;;;;;;4960075;28;20086;-78
2023/07/22 09:57:54;;;;;;;5.82;4.57;;;27.60;38.70;;;;;;4977172;28;20502;-78
2023/07/22 10:00:20;;;;;;;6.30;5.13;;;27.60;38.80;;;;;;4978839;28;20023;-78
2023/07/22 10:02:49;;;;;;;6.75;3.00;;;27.80;39.80;;;;;;4983006;28;20504;-79
2023/07/22 10:05:19;;;;;;;5.95;2.80;;;27.40;39.40;;;;;;4977060;28;20023;-78
2023/07/22 10:07:55;;;;;;;6.93;4.15;;;26.90;39.20;;;;;;4976031;28;20034;-74
2023/07/22 10:10:25;;;;;;;4.93;2.65;;;27.30;39.70;;;;;;4975473;28;20046;-75
2023/07/22 10:12:51;;;;;;;6.25;2.70;;;26.90;40.30;;;;;;4979146;28;20176;-76
2023/07/22 10:15:19;;;;;;;4.43;2.72;;;26.70;40.70;;;;;;4978621;28;20064;-75
2023/07/22 10:17:46;;;;;;;5.47;2.72;;;26.30;41.10;;;;;;4987630;28;20450;-75
2023/07/22 10:20:15;;;;;;;5.55;3.38;;;25.90;42.10;;;;;;4980826;28;20035;-76
2023/07/22 10:22:45;;;;;;;4.95;4.10;;;26.00;42.30;;;;;;4980576;28;20069;-74
2023/07/22 10:25:21;;;;;;;4.72;2.63;;;26.40;40.90;;;;;;4962731;28;20527;-74
2023/07/22 10:27:49;;;;;;;4.10;2.42;;;26.40;40.30;;;;;;4980580;28;20031;-74
2023/07/22 10:30:16;;;;;;;5.45;2.53;;;26.60;40.30;;;;;;4963348;28;20031;-74
2023/07/22 10:32:47;;;;;;;5.32;2.88;;;26.60;40.00;;;;;;4991937;28;20038;-73
2023/07/22 10:35:35;;;;;;;5.63;2.63;;;26.30;41.40;;;;;;4992940;28;20026;-74
2023/07/22 10:38:14;;;;;;;4.43;2.78;;;25.90;41.60;;;;;;4984199;28;20485;-74
2023/07/22 10:40:53;;;;;;;5.40;2.65;;;26.30;40.50;;;;;;4989444;28;20025;-75
2023/07/22 10:43:36;;;;;;;4.68;2.42;;;26.10;41.30;;;;;;4980646;28;20027;-76
2023/07/22 10:46:12;;;;;;;6.05;2.60;;;25.60;41.60;;;;;;4980596;28;20026;-74
2023/07/22 10:48:39;;;;;;;4.60;2.70;;;25.30;42.00;;;;;;4985034;28;20035;-74
2023/07/22 10:51:11;;;;;;;4.93;2.67;;;25.20;42.80;;;;;;4982516;28;20030;-76
2023/07/22 10:53:46;;;;;;;5.80;2.30;;;24.90;43.20;;;;;;4999702;28;20032;-76
2023/07/22 10:56:24;;;;;;;5.82;2.42;;;24.90;42.60;;;;;;4988326;28;20081;-75
2023/07/22 10:58:50;;;;;;;4.85;2.10;;;24.60;42.80;;;;;;4980451;28;20023;-75
2023/07/22 11:01:25;;;;;;;3.55;2.10;;;24.40;43.80;;;;;;4980281;28;20055;-76
2023/07/22 11:04:10;;;;;;;4.22;2.28;;;24.00;43.90;;;;;;4980133;28;20497;-78
2023/07/22 11:06:38;;;;;;;6.13;2.33;;;23.90;46.00;;;;;;4963437;28;20030;-77
2023/07/22 11:09:04;;;;;;;4.70;2.40;;;24.00;45.20;;;;;;4980308;28;20516;-75
2023/07/22 11:11:44;;;;;;;4.65;2.40;;;24.30;44.90;;;;;;4986541;28;20049;-74
2023/07/22 11:14:18;;;;;;;4.78;2.63;;;24.30;44.60;;;;;;4996744;28;20054;-75
2023/07/22 11:16:46;;;;;;;6.35;2.10;;;24.40;44.30;;;;;;4993893;28;20023;-77
2023/07/22 11:19:16;;;;;;;5.20;2.10;;;24.50;44.70;;;;;;4982541;28;20027;-78
2023/07/22 11:21:44;;;;;;;4.07;2.20;;;24.40;44.60;;;;;;4999558;28;20073;-76
2023/07/22 11:24:09;;;;;;;5.72;2.30;;;24.50;43.40;;;;;;4987628;28;20030;-82
2023/07/22 11:26:36;;;;;;;3.95;2.22;;;24.50;43.30;;;;;;4986350;28;20042;-78
2023/07/22 11:29:04;;;;;;;6.20;2.15;;;24.50;43.60;;;;;;4978779;28;20507;-75
2023/07/22 11:31:42;;;;;;;4.30;1.95;;;24.60;43.60;;;;;;4997508;28;20042;-77
2023/07/22 11:34:09;;;;;;;4.30;2.17;;;24.80;42.80;;;;;;4991554;28;20057;-75
2023/07/22 11:36:37;;;;;;;3.30;1.88;;;24.90;41.30;;;;;;4986982;28;20018;-74
2023/07/22 11:39:05;;;;;;;4.82;2.58;;;25.20;43.00;;;;;;4971653;28;20020;-74
2023/07/22 11:41:32;;;;;;;6.32;2.05;;;25.40;44.40;;;;;;4970024;28;20027;-75
2023/07/22 11:44:00;;;;;;;3.80;1.85;;;25.50;41.70;;;;;;4983306;28;20034;-75
2023/07/22 11:46:28;;;;;;;5.03;2.15;;;25.70;41.70;;;;;;4984130;28;20038;-75
2023/07/22 11:48:55;;;;;;;3.70;1.85;;;25.80;42.30;;;;;;4984083;28;20082;-75
2023/07/22 11:51:23;;;;;;;4.80;1.98;;;25.60;41.40;;;;;;4965612;28;20093;-75
2023/07/22 11:53:50;;;;;;;5.85;1.92;;;25.70;41.30;;;;;;4983543;28;20501;-75
2023/07/22 11:56:25;;;;;;;4.65;1.80;;;25.80;41.20;;;;;;4990617;28;20022;-75
2023/07/22 11:58:52;;;;;;;5.43;2.13;;;25.90;41.40;;;;;;4986863;28;20022;-75
2023/07/22 12:01:18;;;;;;;4.47;1.85;;;25.80;40.80;;;;;;4988619;28;20031;-75
2023/07/22 12:03:44;;;;;;;6.30;2.10;;;26.10;41.70;;;;;;4985220;28;20188;-75
2023/07/22 12:06:11;;;;;;;4.40;2.00;;;26.10;41.40;;;;;;4966393;28;20138;-75
2023/07/22 12:08:43;;;;;;;5.70;2.00;;;26.00;40.50;;;;;;4982485;28;20494;-75
2023/07/22 12:11:08;;;;;;;5.25;2.17;;;25.80;41.70;;;;;;4983888;28;20073;-76
2023/07/22 12:13:37;;;;;;;4.43;2.00;;;25.70;42.80;;;;;;4983339;28;20034;-76
2023/07/22 12:16:05;;;;;;;5.03;2.22;;;25.30;42.50;;;;;;4983400;28;20023;-75
2023/07/22 12:18:47;;;;;;;5.45;2.20;;;25.30;41.80;;;;;;4966120;28;20030;-75
2023/07/22 12:21:13;;;;;;;5.35;1.85;;;25.10;42.00;;;;;;4983586;28;20054;-75
2023/07/22 12:23:40;;;;;;;4.72;2.10;;;25.30;42.70;;;;;;4982433;28;20030;-75
2023/07/22 12:26:06;;;;;;;5.30;2.03;;;25.50;42.60;;;;;;4985092;28;20030;-75
2023/07/22 12:28:32;;;;;;;4.32;1.95;;;25.30;42.00;;;;;;4972218;28;20034;-76
2023/07/22 12:30:58;;;;;;;4.43;2.25;;;25.50;41.40;;;;;;4970734;28;20104;-74
2023/07/22 12:33:24;;;;;;;5.03;2.15;;;25.60;40.50;;;;;;4985449;28;20029;-79
2023/07/22 12:35:51;;;;;;;6.97;2.30;;;25.80;41.00;;;;;;4984769;28;20029;-79
2023/07/22 12:38:16;;;;;;;3.60;1.83;;;25.90;42.60;;;;;;4972579;28;20022;-78
2023/07/22 12:40:42;;;;;;;5.25;2.33;;;25.70;40.20;;;;;;4974767;28;20041;-78
2023/07/22 12:43:08;;;;;;;4.35;2.15;;;25.40;40.90;;;;;;4966744;28;20238;-77
2023/07/22 12:45:34;;;;;;;4.47;1.83;;;25.30;41.80;;;;;;4965722;28;20421;-78
2023/07/22 12:47:59;;;;;;;5.93;2.33;;;25.20;42.10;;;;;;4964554;28;20033;-78
2023/07/22 12:50:25;;;;;;;4.10;2.13;;;25.60;42.40;;;;;;4987060;28;20088;-78
2023/07/22 12:52:51;;;;;;;3.80;2.20;;;25.60;41.70;;;;;;4981458;28;20030;-78
2023/07/22 12:55:16;;;;;;;4.97;2.20;;;25.50;41.20;;;;;;4965300;28;20469;-78
2023/07/22 12:57:42;;;;;;;4.60;2.40;;;25.60;42.00;;;;;;4981774;28;20027;-78
2023/07/22 13:00:10;;;;;;;4.35;2.05;;;25.40;41.20;;;;;;4985527;28;20081;-78
2023/07/22 13:02:37;;;;;;;5.18;1.98;;;25.30;41.70;;;;;;4981654;28;20026;-80
2023/07/22 13:05:06;;;;;;;5.22;2.78;;;25.70;42.50;;;;;;4964337;28;20022;-78
2023/07/22 13:07:32;;;;;;;5.53;2.38;;;25.70;41.30;;;;;;4968408;28;20037;-78
2023/07/22 13:10:00;;;;;;;4.22;1.98;;;25.80;41.20;;;;;;4987642;28;20105;-79
2023/07/22 13:12:26;;;;;;;5.45;2.20;;;25.70;40.70;;;;;;4967985;28;20041;-78
2023/07/22 13:14:52;;;;;;;6.80;2.60;;;25.80;41.20;;;;;;4987990;28;20551;-78
2023/07/22 13:17:17;;;;;;;5.20;2.53;;;25.80;41.30;;;;;;4985485;28;20053;-78
2023/07/22 13:19:43;;;;;;;5.07;2.20;;;25.70;40.50;;;;;;4986945;28;20034;-78
2023/07/22 13:22:09;;;;;;;4.72;2.33;;;25.60;41.20;;;;;;4968465;28;20027;-78
2023/07/22 13:24:34;;;;;;;6.18;3.10;;;25.50;42.40;;;;;;4968671;28;20026;-78
2023/07/22 13:27:00;;;;;;;6.10;2.92;;;25.60;40.80;;;;;;4981504;28;20521;-79
2023/07/22 13:29:27;;;;;;;9.68;2.97;;;25.70;39.80;;;;;;4977584;28;20423;-78
2023/07/22 13:31:53;;;;;;;5.68;2.63;;;25.80;40.10;;;;;;4977504;28;20058;-78
2023/07/22 13:34:19;;;;;;;5.63;2.80;;;25.80;41.70;;;;;;4987576;28;20022;-78
2023/07/22 13:36:44;;;;;;;7.13;3.22;;;25.80;40.00;;;;;;4969293;28;20114;-78
2023/07/22 13:39:13;;;;;;;5.80;2.90;;;25.80;40.90;;;;;;4979846;28;20405;-80
2023/07/22 13:41:38;;;;;;;4.80;2.90;;;26.00;41.40;;;;;;4977374;28;20050;-79
2023/07/22 13:44:07;;;;;;;6.18;2.88;;;26.00;39.90;;;;;;4985561;28;20023;-80
2023/07/22 13:46:33;;;;;;;6.13;1.77;;;26.00;40.40;;;;;;4977446;28;20065;-79
2023/07/22 13:48:59;;;;;;;5.88;2.50;;;25.80;40.10;;;;;;4963270;28;20035;-77
2023/07/22 13:51:24;;;;;;;6.40;2.53;;;25.80;39.80;;;;;;4981467;28;20035;-78
2023/07/22 13:53:51;;;;;;;6.55;2.65;;;25.80;40.90;;;;;;4966700;28;20023;-78
2023/07/22 13:56:17;;;;;;;4.93;2.63;;;25.80;41.20;;;;;;4964513;28;20031;-78
2023/07/22 13:58:43;;;;;;;4.63;2.08;;;25.80;40.90;;;;;;4964199;28;20074;-77
2023/07/22 14:01:09;;;;;;;4.10;1.90;;;25.70;40.50;;;;;;4980654;28;20477;-78
2023/07/22 14:03:34;;;;;;;6.38;2.78;;;25.40;41.20;;;;;;4980840;28;20113;-78
2023/07/22 14:06:00;;;;;;;4.80;2.47;;;25.70;41.10;;;;;;4980649;28;20035;-78
2023/07/22 14:08:26;;;;;;;5.68;2.38;;;25.90;41.70;;;;;;4988427;28;20508;-78
2023/07/22 14:10:52;;;;;;;4.43;2.35;;;26.10;41.10;;;;;;4989299;28;20448;-78
2023/07/22 14:13:18;;;;;;;4.45;1.92;;;25.90;40.20;;;;;;4967425;28;20034;-77
2023/07/22 14:15:43;;;;;;;5.43;2.20;;;26.00;40.80;;;;;;4981483;28;20035;-78
2023/07/22 14:18:09;;;;;;;4.57;2.00;;;25.80;40.80;;;;;;4963421;28;20019;-78
2023/07/22 14:20:35;;;;;;;4.40;1.80;;;25.80;40.80;;;;;;4963215;28;20035;-78
2023/07/22 14:23:02;;;;;;;3.47;1.65;;;25.80;40.50;;;;;;4981332;28;20033;-78
2023/07/22 14:25:28;;;;;;;4.28;1.98;;;25.80;40.30;;;;;;4998280;28;20030;-78
2023/07/22 14:27:53;;;;;;;4.75;2.10;;;25.60;40.50;;;;;;4983618;28;20117;-78
2023/07/22 14:30:19;;;;;;;3.78;1.92;;;25.60;41.20;;;;;;5000273;28;20031;-79
2023/07/22 14:32:45;;;;;;;3.50;1.70;;;25.50;41.00;;;;;;4973272;28;20034;-76
2023/07/22 14:35:10;;;;;;;4.20;2.20;;;25.50;40.90;;;;;;4980341;28;20074;-77
2023/07/22 14:37:37;;;;;;;4.75;2.35;;;25.30;40.90;;;;;;4980827;28;20054;-77
2023/07/22 14:40:04;;;;;;;5.85;2.67;;;25.30;42.10;;;;;;4980585;28;20031;-77
2023/07/22 14:42:30;;;;;;;4.70;2.63;;;25.60;42.00;;;;;;4963569;28;20030;-77
2023/07/22 14:44:56;;;;;;;6.47;2.97;;;25.70;41.00;;;;;;4980517;28;20553;-78
2023/07/22 14:47:21;;;;;;;4.18;2.30;;;25.70;40.70;;;;;;4980916;28;20038;-77
2023/07/22 14:49:47;;;;;;;4.40;2.40;;;25.60;40.30;;;;;;4963186;28;20030;-77
2023/07/22 14:52:13;;;;;;;4.57;2.33;;;25.40;40.50;;;;;;4979830;28;20027;-77
2023/07/22 14:54:41;;;;;;;5.10;2.53;;;25.40;40.00;;;;;;4979526;28;20050;-81
2023/07/22 14:57:07;;;;;;;5.05;2.25;;;25.30;41.50;;;;;;4980642;28;20019;-77
2023/07/22 14:59:33;;;;;;;6.78;2.28;;;25.30;41.10;;;;;;4962883;28;20142;-81
2023/07/22 15:01:58;;;;;;;4.78;2.22;;;25.40;41.20;;;;;;4990518;28;20034;-80
2023/07/22 15:04:24;;;;;;;5.15;2.35;;;25.40;40.90;;;;;;4962861;28;20038;-81
2023/07/22 15:06:50;;;;;;;6.00;2.33;;;25.30;41.00;;;;;;4980253;28;20033;-81
2023/07/22 15:09:16;;;;;;;5.75;2.63;;;25.10;41.10;;;;;;4963049;28;20060;-79
2023/07/22 15:11:41;;;;;;;5.03;2.53;;;24.90;41.40;;;;;;4962784;28;20481;-81
2023/07/22 15:14:07;;;;;;;5.93;2.90;;;24.80;42.10;;;;;;4980244;28;20027;-77
2023/07/22 15:16:33;;;;;;;7.22;2.38;;;24.90;42.20;;;;;;4984696;28;20083;-79
2023/07/22 15:18:59;;;;;;;6.53;2.67;;;24.90;42.20;;;;;;4973635;28;20537;-80
2023/07/22 15:21:24;;;;;;;4.30;2.17;;;25.00;41.10;;;;;;4980344;28;20033;-84
2023/07/22 15:24:22;;;;;;;5.30;2.58;;;25.00;42.10;;;;;;4980302;28;20027;-79
2023/07/22 15:26:51;;;;;;;5.93;2.05;;;25.00;42.40;;;;;;4956236;28;20069;-82
2023/07/22 15:29:16;;;;;;;5.80;2.83;;;25.00;42.50;;;;;;4981853;28;20023;-79
2023/07/22 15:31:43;;;;;;;6.13;2.45;;;25.10;42.70;;;;;;4979765;28;20051;-87
2023/07/22 15:34:09;;;;;;;6.70;2.80;;;25.20;41.50;;;;;;4964615;28;20394;-79
2023/07/22 15:36:34;;;;;;;5.35;2.75;;;25.00;41.70;;;;;;4961724;28;20125;-79
2023/07/22 15:39:00;;;;;;;7.28;3.00;;;24.70;42.20;;;;;;4979454;28;20026;-78
2023/07/22 15:41:25;;;;;;;7.68;3.67;;;24.70;43.30;;;;;;4978046;28;20062;-78
2023/07/22 15:43:51;;;;;;;7.90;3.47;;;24.80;43.10;;;;;;4997671;28;20062;-78
2023/07/22 15:46:17;;;;;;;6.70;3.20;;;24.80;42.60;;;;;;4997604;28;20462;-78
2023/07/22 15:48:42;;;;;;;7.32;3.80;;;24.70;42.30;;;;;;4975629;28;20389;-78
2023/07/22 15:51:08;;;;;;;6.30;3.40;;;24.80;42.90;;;;;;4993906;28;20042;-78
2023/07/22 15:53:34;;;;;;;7.10;3.45;;;24.80;41.80;;;;;;4967758;28;20390;-78
2023/07/22 15:55:59;;;;;;;9.65;3.67;;;24.90;42.10;;;;;;4979262;28;20019;-78
2023/07/22 15:58:25;;;;;;;8.23;2.88;;;24.90;41.90;;;;;;4982208;28;20844;-77
2023/07/22 16:00:51;;;;;;;7.45;3.92;;;24.80;42.30;;;;;;4979179;28;20233;-77
2023/07/22 16:03:17;;;;;;;8.15;3.75;;;24.60;42.30;;;;;;4967378;28;20040;-77
2023/07/22 16:05:43;;;;;;;9.77;4.45;;;24.50;42.60;;;;;;4981546;28;20039;-78
2023/07/22 16:08:09;;;;;;;12.13;4.10;;;24.60;43.00;;;;;;4974019;28;20030;-77
2023/07/22 16:10:35;;;;;;;8.70;4.45;;;24.70;43.00;;;;;;4992596;28;20037;-77
2023/07/22 16:13:01;;;;;;;10.05;4.72;;;24.80;43.80;;;;;;4965633;28;20129;-78
2023/07/22 16:15:26;;;;;;;6.50;3.75;;;24.80;42.60;;;;;;4961278;28;20059;-78
2023/07/22 16:17:52;;;;;;;9.82;4.10;;;24.80;43.00;;;;;;4979025;28;20050;-78
2023/07/22 16:20:18;;;;;;;8.35;4.03;;;24.60;43.50;;;;;;4979169;28;20081;-77
2023/07/22 16:22:44;;;;;;;8.45;3.60;;;24.40;44.20;;;;;;4961371;28;20045;-85
2023/07/22 16:25:11;;;;;;;9.35;4.20;;;24.20;44.20;;;;;;4979030;28;20023;-79
2023/07/22 16:27:38;;;;;;;7.28;3.80;;;24.20;45.00;;;;;;4979020;28;20065;-86
2023/07/22 16:30:05;;;;;;;7.70;3.95;;;24.20;44.50;;;;;;4983352;28;20038;-86
2023/07/22 16:32:31;;;;;;;13.82;4.70;;;24.30;44.50;;;;;;4964793;28;20105;-81
2023/07/22 16:35:06;;;;;;;8.00;4.25;;;24.20;45.10;;;;;;4970730;28;20023;-83
2023/07/22 16:37:32;;;;;;;9.90;4.10;;;24.00;45.00;;;;;;4965465;28;20022;-79
2023/07/22 16:39:57;;;;;;;7.78;4.18;;;23.90;45.20;;;;;;4981282;28;20093;-79
2023/07/22 16:42:23;;;;;;;10.18;4.47;;;23.80;45.00;;;;;;4970731;28;20034;-80
2023/07/22 16:44:49;;;;;;;9.00;3.88;;;23.70;45.30;;;;;;4966139;28;20030;-79
2023/07/22 16:47:14;;;;;;;10.45;5.30;;;23.70;45.40;;;;;;4979276;28;20029;-82
2023/07/22 16:49:41;;;;;;;9.48;4.35;;;23.60;45.10;;;;;;4994160;28;20043;-80
2023/07/22 16:52:07;;;;;;;7.05;3.42;;;23.50;44.60;;;;;;4964804;28;20031;-80
2023/07/22 16:54:35;;;;;;;8.85;5.03;;;23.30;44.90;;;;;;4962658;28;20034;-84
2023/07/22 16:57:01;;;;;;;8.95;4.72;;;23.20;45.70;;;;;;4982235;28;20033;-80
2023/07/22 16:59:27;;;;;;;9.73;5.20;;;23.30;45.70;;;;;;4962448;28;20125;-82
2023/07/22 17:01:52;;;;;;;9.18;4.78;;;23.30;45.20;;;;;;4982870;28;20592;-78
2023/07/22 17:04:18;;;;;;;10.35;5.05;;;23.40;45.30;;;;;;4982652;28;20512;-81
2023/07/22 17:06:44;;;;;;;11.70;5.32;;;23.40;45.00;;;;;;4979155;28;20034;-75
2023/07/22 17:09:11;;;;;;;12.13;4.97;;;23.40;44.90;;;;;;4966519;28;20034;-80
2023/07/22 17:11:37;;;;;;;10.48;5.68;;;23.50;45.30;;;;;;4965101;28;20042;-79
2023/07/22 17:14:03;;;;;;;9.40;4.78;;;23.30;45.10;;;;;;4982571;28;20031;-78